Aérodrome :
LOGIN :

S'inscrire | Disclaimer

   EN    FR    IT 

 










Légende :    VFR   VFR Marginal   IFR   IFR Intensif   IFR Très Intensif
Visi : 
Plafond : 
>= 8 km
>= 3000ft
5 à 8 km
1000 à 3000 ft
1500m à 5 km
500 à 1000 ft
800 à 1500m
200 à 500 ft
< 800m
< 200 ft
Symboles :   Orages  Brouillard  Fortes neiges  Fortes précipitations  Vent > 20 kt
SIGMETs :   Divers  Orages  Givrage  Turbulence  Onde Orograph.  Cendres Volcan.






- Altitude de l'aérodrome : 465 ft
- Code IATA : LEJ


EDDP - Leipzig Halle

DERNIER METAR :
  • 170250Z AUTO 18004KT 160V220 CAVOK 16/13 Q1012

METARs EXPIRÉS :
  • 170220Z AUTO 18005KT CAVOK 15/13 Q1012 NOSIG
  • 170150Z AUTO 16004KT CAVOK 15/13 Q1011
  • 170120Z AUTO 17004KT 140V210 9999 -RA NSC 16/13 Q1011 NOSIG
  • 170050Z AUTO 15004KT 9999 -RA NSC 16/12 Q1011
  • 170020Z AUTO 16005KT CAVOK 16/13 Q1011 NOSIG
  • 162350Z AUTO 16006KT CAVOK 16/12 Q1011
  • 162320Z AUTO 18007KT CAVOK 17/12 Q1011 NOSIG
  • 162250Z AUTO 20007KT CAVOK 16/12 Q1011
  • 162220Z AUTO 17006KT CAVOK 18/11 Q1011 NOSIG

TAF TAF EDDP
Valide du 17 à 00h jusqu'au 18 à 00h UTC


162300Z 1700/1724 20006KT CAVOK
PROB30
TEMPO 1715/1719 23015G25KT TSRA SCT025CB



MET'MAP, la Météo Aéronautique d'un coup d'oeil ! - Copyright ORBIFLY Décembre 2007 - Disclaimer

ORBIFLY MET'MAP TEAM :

Programmation & Développement : Alexandra Zaïnal
Sur une idée originale de : Baudouin d'Aumeries
Soutien technique & logistique : Manuel Goepfert
Assistance : Marc-Olivier Méhu




SOURCES & CREDITS :

   NOAA